createdAt,value
2018-12-12T00:00:10.735Z,1.45
2018-12-12T00:02:39.297Z,1.53
2018-12-12T00:05:08.404Z,1.38
2018-12-12T00:07:37.178Z,1.22
2018-12-12T00:10:08.216Z,1.34
2018-12-12T00:12:37.236Z,1.33
2018-12-12T00:15:06.045Z,1.45
2018-12-12T00:17:35.006Z,1.64
2018-12-12T00:20:10.123Z,1.61
2018-12-12T00:22:38.632Z,1.62
2018-12-12T00:30:10.093Z,1.82
2018-12-12T00:32:38.859Z,2.05
2018-12-12T00:35:08.368Z,2.15
2018-12-12T00:37:36.966Z,2.35
2018-12-12T00:40:05.792Z,2.51
2018-12-12T00:42:35.032Z,2.65
2018-12-12T00:45:03.554Z,2.72
2018-12-12T00:47:32.089Z,2.79
2018-12-12T00:50:00.657Z,2.75
2018-12-12T00:52:29.271Z,2.79
2018-12-12T00:54:58.499Z,2.90
2018-12-12T00:57:27.949Z,2.83
2018-12-12T00:59:56.948Z,2.88
2018-12-12T01:02:25.498Z,2.95
2018-12-12T01:04:54.210Z,2.99
2018-12-12T01:07:22.868Z,3.02
2018-12-12T01:09:51.357Z,3.00
2018-12-12T01:12:19.931Z,3.15
2018-12-12T01:14:48.627Z,3.13
2018-12-12T01:17:17.143Z,3.26
2018-12-12T01:19:45.750Z,3.26
2018-12-12T01:22:14.264Z,3.25
2018-12-12T01:24:42.960Z,3.32
2018-12-12T01:27:11.551Z,3.27
2018-12-12T01:29:40.115Z,3.25
2018-12-12T01:32:09.014Z,3.24
2018-12-12T01:34:37.536Z,3.11
2018-12-12T01:37:06.317Z,3.23
2018-12-12T01:39:34.928Z,3.03
2018-12-12T01:42:03.601Z,3.15
2018-12-12T01:44:32.139Z,3.13
2018-12-12T01:47:00.680Z,3.35
2018-12-12T01:49:29.755Z,3.25
2018-12-12T01:51:58.282Z,3.33
2018-12-12T01:54:27.017Z,3.37
2018-12-12T01:56:56.145Z,3.39
2018-12-12T01:59:24.698Z,3.42
2018-12-12T02:01:53.229Z,3.43
2018-12-12T02:04:22.000Z,3.43
2018-12-12T02:06:50.489Z,3.42
2018-12-12T02:09:19.113Z,3.54
2018-12-12T02:11:47.622Z,3.53
2018-12-12T02:14:16.126Z,3.36
2018-12-12T02:16:44.713Z,3.42
2018-12-12T02:19:13.577Z,3.39
2018-12-12T02:21:42.062Z,3.43
2018-12-12T02:24:10.588Z,3.48
2018-12-12T02:26:39.340Z,3.49
2018-12-12T02:29:07.820Z,3.45
2018-12-12T02:31:37.057Z,3.46
2018-12-12T02:34:05.662Z,3.54
2018-12-12T02:36:34.157Z,3.44
2018-12-12T02:39:02.768Z,3.37
2018-12-12T02:41:31.386Z,3.46
2018-12-12T02:43:59.901Z,3.49
2018-12-12T02:46:28.373Z,3.58
2018-12-12T02:48:57.092Z,3.49
2018-12-12T02:51:26.536Z,3.54
2018-12-12T02:53:55.156Z,3.53
2018-12-12T02:56:23.649Z,3.51
2018-12-12T02:58:52.197Z,3.41
2018-12-12T03:01:20.664Z,3.51
2018-12-12T03:03:49.342Z,3.51
2018-12-12T03:06:17.878Z,3.43
2018-12-12T03:08:46.428Z,3.38
2018-12-12T03:11:19.110Z,3.41
2018-12-12T03:13:47.669Z,3.43
2018-12-12T03:16:16.356Z,3.43
2018-12-12T03:18:44.843Z,3.46
2018-12-12T03:21:13.387Z,3.36
2018-12-12T03:23:43.762Z,3.45
2018-12-12T03:26:13.783Z,3.47
2018-12-12T03:28:42.445Z,3.36
2018-12-12T03:31:10.945Z,3.35
2018-12-12T03:33:39.471Z,3.23
2018-12-12T03:36:08.057Z,3.34
2018-12-12T03:38:37.288Z,3.25
2018-12-12T03:41:06.097Z,3.25
2018-12-12T03:43:35.370Z,3.17
2018-12-12T03:46:03.992Z,3.23
2018-12-12T03:48:32.779Z,3.27
2018-12-12T03:51:01.276Z,3.28
2018-12-12T03:53:29.784Z,3.30
2018-12-12T03:55:58.521Z,3.26
2018-12-12T03:58:27.036Z,3.29
2018-12-12T04:00:55.516Z,3.18
2018-12-12T04:03:24.068Z,3.24
2018-12-12T04:05:52.539Z,3.21
2018-12-12T04:08:21.048Z,3.33
2018-12-12T04:10:49.544Z,3.25
2018-12-12T04:13:18.134Z,3.23
2018-12-12T04:15:46.721Z,3.17
2018-12-12T04:18:15.234Z,3.16
2018-12-12T04:20:43.909Z,3.15
2018-12-12T04:23:12.466Z,3.13
2018-12-12T04:25:41.151Z,3.04
2018-12-12T04:28:09.613Z,3.19
2018-12-12T04:30:38.495Z,3.24
2018-12-12T04:33:07.007Z,3.32
2018-12-12T04:35:35.630Z,3.22
2018-12-12T04:38:04.228Z,3.28
2018-12-12T04:40:32.729Z,3.29
2018-12-12T04:43:01.299Z,3.38
2018-12-12T04:45:31.332Z,3.35
2018-12-12T04:47:59.837Z,3.32
2018-12-12T04:50:28.304Z,3.32
2018-12-12T04:52:56.981Z,3.36
2018-12-12T04:55:25.550Z,3.32
2018-12-12T04:57:54.101Z,3.42
2018-12-12T05:00:22.889Z,3.35
2018-12-12T05:02:51.796Z,3.44
2018-12-12T05:05:20.520Z,3.45
2018-12-12T05:07:49.061Z,3.40
2018-12-12T05:10:17.544Z,3.37
2018-12-12T05:12:46.068Z,3.46
2018-12-12T05:15:15.300Z,3.44
2018-12-12T05:17:44.100Z,3.55
2018-12-12T05:20:13.914Z,3.57
2018-12-12T05:22:42.640Z,3.60
2018-12-12T05:25:11.388Z,3.56
2018-12-12T05:27:41.144Z,3.53
2018-12-12T05:30:10.606Z,3.50
2018-12-12T05:32:39.201Z,3.35
2018-12-12T05:35:08.724Z,3.29
2018-12-12T05:37:38.034Z,3.26
2018-12-12T05:40:07.182Z,3.17
2018-12-12T05:42:36.062Z,3.08
2018-12-12T05:45:04.977Z,3.07
2018-12-12T05:47:34.137Z,3.02
2018-12-12T05:50:02.844Z,2.88
2018-12-12T05:52:31.415Z,2.57
2018-12-12T05:55:00.097Z,2.41
2018-12-12T05:57:28.701Z,2.33
2018-12-12T05:59:57.210Z,2.18
2018-12-12T06:02:25.727Z,2.01
2018-12-12T06:04:54.268Z,2.21
2018-12-12T06:07:22.743Z,2.20
2018-12-12T06:09:51.505Z,2.14
2018-12-12T06:12:19.981Z,2.10
2018-12-12T06:14:48.468Z,2.10
2018-12-12T06:17:17.147Z,2.12
2018-12-12T06:19:45.968Z,2.16
2018-12-12T06:22:15.042Z,2.20
2018-12-12T06:24:43.746Z,2.29
2018-12-12T06:27:12.257Z,2.37
2018-12-12T06:29:40.763Z,2.44
2018-12-12T06:32:09.282Z,2.50
2018-12-12T06:34:37.788Z,2.65
2018-12-12T06:37:06.362Z,2.70
2018-12-12T06:39:34.892Z,2.79
2018-12-12T06:42:04.323Z,2.88
2018-12-12T06:44:32.848Z,2.91
2018-12-12T06:47:01.379Z,2.92
2018-12-12T06:49:29.907Z,2.93
2018-12-12T06:51:58.423Z,2.96
2018-12-12T06:54:26.890Z,2.99
2018-12-12T06:56:55.440Z,3.01
2018-12-12T07:01:59.042Z,2.95
2018-12-12T07:04:27.604Z,2.88
2018-12-12T07:06:57.107Z,2.81
2018-12-12T07:09:25.674Z,2.48
2018-12-12T07:11:54.224Z,2.25
2018-12-12T07:14:22.888Z,2.15
2018-12-12T07:16:51.363Z,2.03
2018-12-12T07:19:20.697Z,1.82
2018-12-12T07:21:49.246Z,1.66
2018-12-12T07:24:17.721Z,1.48
2018-12-12T07:26:46.335Z,1.58
2018-12-12T07:29:14.869Z,1.65
2018-12-12T07:31:43.961Z,1.71
2018-12-12T07:34:12.500Z,1.59
2018-12-12T07:36:41.005Z,1.39
2018-12-12T07:39:09.935Z,1.44
2018-12-12T07:41:38.740Z,1.40
2018-12-12T07:44:07.286Z,1.47
2018-12-12T07:46:36.468Z,1.44
2018-12-12T07:49:05.716Z,1.47
2018-12-12T07:51:34.184Z,1.68
2018-12-12T07:54:02.816Z,1.86
2018-12-12T07:56:31.295Z,2.06
2018-12-12T07:58:59.930Z,2.14
2018-12-12T08:01:28.661Z,2.17
2018-12-12T08:03:57.734Z,2.20
2018-12-12T08:06:26.245Z,2.29
2018-12-12T08:08:54.744Z,2.30
2018-12-12T08:11:23.313Z,2.46
2018-12-12T08:13:51.813Z,2.51
2018-12-12T08:16:20.553Z,2.60
2018-12-12T08:18:49.132Z,2.66
2018-12-12T08:21:17.715Z,2.77
2018-12-12T08:23:46.217Z,2.87
2018-12-12T08:26:14.762Z,3.06
2018-12-12T08:28:43.309Z,3.13
2018-12-12T08:31:11.993Z,3.09
2018-12-12T08:33:41.097Z,3.14
2018-12-12T08:36:09.614Z,3.34
2018-12-12T08:38:38.126Z,3.37
2018-12-12T08:41:06.624Z,3.44
2018-12-12T08:43:35.300Z,3.48
2018-12-12T08:46:03.793Z,3.50
2018-12-12T08:48:32.277Z,3.47
2018-12-12T08:51:01.027Z,3.45
2018-12-12T08:53:29.514Z,3.65
2018-12-12T08:55:59.007Z,3.63
2018-12-12T08:58:28.410Z,3.61
2018-12-12T09:00:56.901Z,3.63
2018-12-12T09:03:25.448Z,3.69
2018-12-12T09:05:54.173Z,3.63
2018-12-12T09:08:22.716Z,3.54
2018-12-12T09:10:51.186Z,3.57
2018-12-12T09:13:20.433Z,3.46
2018-12-12T09:15:49.111Z,3.71
2018-12-12T09:18:17.606Z,3.70
2018-12-12T09:20:46.196Z,3.63
2018-12-12T09:23:14.937Z,3.68
2018-12-12T09:25:43.496Z,3.65
2018-12-12T09:28:12.012Z,3.71
2018-12-12T09:30:41.044Z,3.78
2018-12-12T09:33:09.545Z,3.86
2018-12-12T09:35:38.033Z,3.93
2018-12-12T09:38:06.563Z,3.72
2018-12-12T09:40:35.329Z,3.91
2018-12-12T09:43:03.969Z,4.19
2018-12-12T09:45:32.460Z,4.21
2018-12-12T09:48:00.993Z,4.23
2018-12-12T09:50:29.893Z,4.23
2018-12-12T09:52:58.409Z,4.31
2018-12-12T09:55:26.959Z,4.33
2018-12-12T09:57:55.449Z,4.40
2018-12-12T10:00:24.021Z,4.32
2018-12-12T10:02:52.534Z,4.52
2018-12-12T10:05:21.032Z,4.46
2018-12-12T10:07:49.516Z,4.58
2018-12-12T10:10:18.067Z,4.71
2018-12-12T10:12:46.674Z,4.67
2018-12-12T10:15:15.464Z,4.56
2018-12-12T10:17:44.045Z,4.31
2018-12-12T10:20:12.653Z,4.61
2018-12-12T10:22:41.220Z,4.59
2018-12-12T10:25:09.795Z,4.79
2018-12-12T10:27:38.352Z,5.02
2018-12-12T10:30:07.758Z,5.02
2018-12-12T10:32:36.376Z,4.92
2018-12-12T10:35:05.349Z,4.96
2018-12-12T10:37:33.817Z,4.87
2018-12-12T10:40:02.319Z,4.78
2018-12-12T10:42:30.859Z,4.88
2018-12-12T10:44:59.427Z,4.79
2018-12-12T10:47:27.937Z,4.92
2018-12-12T10:49:56.433Z,5.12
2018-12-12T10:52:24.928Z,4.90
2018-12-12T10:54:53.397Z,4.72
2018-12-12T10:57:21.910Z,4.68
2018-12-12T10:59:51.064Z,4.97
2018-12-12T11:02:25.077Z,4.93
2018-12-12T11:04:53.576Z,5.09
2018-12-12T11:07:22.108Z,5.07
2018-12-12T11:09:50.709Z,5.12
2018-12-12T11:12:19.303Z,5.07
2018-12-12T11:14:51.476Z,5.19
2018-12-12T11:17:20.719Z,5.08
2018-12-12T11:19:50.127Z,4.98
2018-12-12T11:22:23.159Z,5.01
2018-12-12T11:24:51.715Z,5.02
2018-12-12T11:27:23.023Z,5.16
2018-12-12T11:29:52.175Z,5.14
2018-12-12T11:32:20.884Z,4.98
2018-12-12T11:34:49.425Z,4.97
2018-12-12T11:37:18.025Z,4.95
2018-12-12T11:39:46.625Z,5.06
2018-12-12T11:42:15.330Z,5.15
2018-12-12T11:44:43.845Z,5.21
2018-12-12T11:47:12.307Z,5.25
2018-12-12T11:49:40.887Z,5.45
2018-12-12T11:52:09.785Z,5.49
2018-12-12T11:54:39.216Z,5.62
2018-12-12T11:57:08.637Z,5.50
2018-12-12T11:59:37.139Z,5.43
2018-12-12T12:02:06.427Z,5.40
2018-12-12T12:04:35.012Z,5.20
2018-12-12T12:07:03.500Z,5.15
2018-12-12T12:09:31.975Z,5.02
2018-12-12T12:12:00.468Z,5.05
2018-12-12T12:14:29.020Z,5.10
2018-12-12T12:16:57.547Z,5.32
2018-12-12T12:19:26.060Z,5.07
2018-12-12T12:21:54.606Z,4.83
2018-12-12T12:24:24.313Z,4.82
2018-12-12T12:26:53.015Z,4.88
2018-12-12T12:29:21.981Z,4.95
2018-12-12T12:31:50.524Z,5.08
2018-12-12T12:34:19.057Z,5.08
2018-12-12T12:36:48.632Z,5.08
2018-12-12T12:39:17.231Z,5.01
2018-12-12T12:41:45.695Z,4.86
2018-12-12T12:44:15.265Z,4.84
2018-12-12T12:46:43.815Z,4.93
2018-12-12T12:49:12.439Z,4.86
2018-12-12T12:51:40.960Z,4.82
2018-12-12T12:54:09.497Z,4.70
2018-12-12T12:56:38.069Z,4.81
2018-12-12T12:59:06.677Z,4.72
2018-12-12T13:01:35.366Z,4.83
2018-12-12T13:04:09.472Z,4.75
2018-12-12T13:06:35.153Z,4.83
2018-12-12T13:09:04.876Z,4.86
2018-12-12T13:11:33.367Z,4.79
2018-12-12T13:14:01.954Z,4.81
2018-12-12T13:16:30.564Z,4.80
2018-12-12T13:18:59.056Z,4.81
2018-12-12T13:21:27.560Z,4.73
2018-12-12T13:23:56.024Z,4.75
2018-12-12T13:26:25.355Z,4.71
2018-12-12T13:28:53.858Z,4.72
2018-12-12T13:31:22.407Z,4.79
2018-12-12T13:33:51.032Z,4.83
2018-12-12T13:36:19.559Z,4.79
2018-12-12T13:38:48.084Z,4.85
2018-12-12T13:41:16.548Z,4.80
2018-12-12T13:43:45.644Z,5.03
2018-12-12T13:46:14.146Z,5.01
2018-12-12T13:48:42.744Z,4.95
2018-12-12T13:51:17.664Z,4.94
2018-12-12T13:53:46.242Z,4.91
2018-12-12T13:56:14.784Z,4.73
2018-12-12T13:58:43.249Z,4.66
2018-12-12T14:01:11.880Z,4.58
2018-12-12T14:03:40.488Z,4.52
2018-12-12T14:06:09.009Z,4.50
2018-12-12T14:08:38.554Z,4.48
2018-12-12T14:11:07.066Z,4.42
2018-12-12T14:13:35.575Z,4.29
2018-12-12T14:16:04.121Z,4.10
2018-12-12T14:18:32.639Z,4.06
2018-12-12T14:21:01.159Z,4.03
2018-12-12T14:23:29.763Z,3.96
2018-12-12T14:25:58.253Z,3.90
2018-12-12T14:28:26.800Z,3.77
2018-12-12T14:30:55.325Z,3.71
2018-12-12T14:33:23.883Z,3.68
2018-12-12T14:35:53.116Z,3.72
2018-12-12T14:38:21.663Z,3.67
2018-12-12T14:40:50.149Z,3.58
2018-12-12T14:43:18.677Z,3.56
2018-12-12T14:45:47.181Z,3.50
2018-12-12T14:48:15.677Z,3.37
2018-12-12T14:50:44.985Z,3.25
2018-12-12T14:53:13.512Z,2.95
2018-12-12T14:55:42.058Z,2.95
2018-12-12T14:58:11.032Z,2.85
2018-12-12T15:00:40.930Z,2.88
2018-12-12T15:03:09.466Z,2.85
2018-12-12T15:05:37.993Z,2.70
2018-12-12T15:08:06.488Z,2.56
2018-12-12T15:10:35.009Z,2.52
2018-12-12T15:13:03.500Z,2.40
2018-12-12T15:15:33.024Z,2.38
2018-12-12T15:18:01.553Z,2.41
2018-12-12T15:20:30.177Z,2.33
2018-12-12T15:22:59.374Z,2.27
2018-12-12T15:25:27.930Z,2.26
2018-12-12T15:27:57.208Z,2.24
2018-12-12T15:30:25.685Z,2.10
2018-12-12T15:32:54.253Z,2.43
2018-12-12T15:35:22.782Z,2.35
2018-12-12T15:37:51.303Z,2.27
2018-12-12T15:40:19.994Z,2.35
2018-12-12T15:42:48.476Z,2.26
2018-12-12T15:45:16.971Z,2.35
2018-12-12T15:47:45.496Z,2.36
2018-12-12T15:50:13.972Z,2.23
2018-12-12T15:52:42.497Z,2.23
2018-12-12T15:55:11.028Z,2.18
2018-12-12T15:57:39.508Z,2.15
2018-12-12T16:00:09.333Z,2.18
2018-12-12T16:02:38.709Z,2.23
2018-12-12T16:05:07.176Z,2.16
2018-12-12T16:07:35.734Z,2.11
2018-12-12T16:10:04.975Z,2.15
2018-12-12T16:12:33.512Z,2.13
2018-12-12T16:15:02.550Z,2.00
2018-12-12T16:17:31.092Z,1.88
2018-12-12T16:19:59.621Z,1.94
2018-12-12T16:22:31.109Z,1.99
2018-12-12T16:24:59.628Z,2.03
2018-12-12T16:27:28.885Z,1.97
2018-12-12T16:29:57.444Z,1.95
2018-12-12T16:32:26.785Z,1.93
2018-12-12T16:34:55.697Z,1.92
2018-12-12T16:37:24.552Z,1.73
2018-12-12T16:39:53.046Z,1.69
2018-12-12T16:42:21.544Z,1.58
2018-12-12T16:44:50.607Z,1.49
2018-12-12T16:47:19.292Z,1.54
2018-12-12T16:49:47.781Z,1.49
2018-12-12T16:52:16.523Z,1.61
2018-12-12T16:54:45.119Z,1.66
2018-12-12T16:57:13.641Z,1.82
2018-12-12T16:59:42.128Z,1.91
2018-12-12T17:02:10.648Z,1.92
2018-12-12T17:04:39.823Z,1.95
2018-12-12T17:07:08.535Z,2.02
2018-12-12T17:09:37.028Z,2.15
2018-12-12T17:12:05.545Z,2.26
2018-12-12T17:14:34.015Z,2.39
2018-12-12T17:17:02.876Z,2.49
2018-12-12T17:19:31.395Z,2.52
2018-12-12T17:21:59.923Z,2.58
2018-12-12T17:24:28.585Z,2.70
2018-12-12T17:26:57.089Z,2.72
2018-12-12T17:29:25.898Z,2.66
2018-12-12T17:31:54.476Z,2.77
2018-12-12T17:34:23.008Z,2.88
2018-12-12T17:36:51.703Z,2.90
2018-12-12T17:39:20.244Z,2.88
2018-12-12T17:41:48.732Z,2.98
2018-12-12T17:44:17.363Z,2.97
2018-12-12T17:46:45.872Z,2.98
2018-12-12T17:49:14.401Z,3.00
2018-12-12T17:51:42.888Z,3.04
2018-12-12T17:54:11.432Z,3.00
2018-12-12T17:56:39.931Z,3.10
2018-12-12T17:59:08.570Z,3.16
2018-12-12T18:01:37.090Z,3.12
2018-12-12T18:04:06.524Z,3.09
2018-12-12T18:06:35.198Z,3.04
2018-12-12T18:09:04.542Z,3.12
2018-12-12T18:11:33.197Z,3.08
2018-12-12T18:14:01.788Z,3.05
2018-12-12T18:16:30.491Z,3.11
2018-12-12T18:18:59.741Z,3.14
2018-12-12T18:21:28.581Z,3.13
2018-12-12T18:23:57.242Z,3.17
2018-12-12T18:26:26.060Z,3.16
2018-12-12T18:28:54.609Z,3.11
2018-12-12T18:31:23.331Z,3.14
2018-12-12T18:33:52.172Z,3.16
2018-12-12T18:36:20.892Z,3.14
2018-12-12T18:38:50.231Z,3.15
2018-12-12T18:41:20.854Z,3.16
2018-12-12T18:43:49.553Z,3.11
2018-12-12T18:46:18.640Z,2.96
2018-12-12T18:48:47.199Z,2.90
2018-12-12T18:51:15.677Z,2.88
2018-12-12T18:53:44.347Z,2.92
2018-12-12T18:56:13.819Z,2.92
2018-12-12T18:58:42.457Z,2.88
2018-12-12T19:01:11.044Z,2.94
2018-12-12T19:03:40.248Z,2.86
2018-12-12T19:06:08.728Z,2.88
2018-12-12T19:08:37.218Z,2.83
2018-12-12T19:11:05.733Z,2.77
2018-12-12T19:13:34.433Z,2.71
2018-12-12T19:16:03.222Z,2.63
2018-12-12T19:18:32.096Z,2.65
2018-12-12T19:21:00.727Z,2.70
2018-12-12T19:23:29.641Z,2.66
2018-12-12T19:25:58.147Z,2.80
2018-12-12T19:28:26.686Z,2.87
2018-12-12T19:30:55.229Z,3.02
2018-12-12T19:33:23.856Z,3.01
2018-12-12T19:35:52.442Z,3.00
2018-12-12T19:38:21.459Z,2.99
2018-12-12T19:40:50.039Z,2.95
2018-12-12T19:43:18.734Z,2.97
2018-12-12T19:45:47.249Z,3.01
2018-12-12T19:48:15.802Z,3.09
2018-12-12T19:50:44.476Z,3.13
2018-12-12T19:53:13.065Z,3.07
2018-12-12T19:55:41.822Z,2.96
2018-12-12T19:58:10.455Z,2.92
2018-12-12T20:00:39.053Z,3.01
2018-12-12T20:03:08.410Z,2.94
2018-12-12T20:05:41.360Z,3.06
2018-12-12T20:08:08.109Z,3.13
2018-12-12T20:10:36.732Z,3.18
2018-12-12T20:13:05.377Z,3.12
2018-12-12T20:15:39.007Z,3.13
2018-12-12T20:18:07.510Z,3.13
2018-12-12T20:20:36.107Z,3.02
2018-12-12T20:23:04.725Z,3.06
2018-12-12T20:25:33.305Z,3.11
2018-12-12T20:28:01.829Z,3.12
2018-12-12T20:30:35.289Z,3.09
2018-12-12T20:33:00.972Z,3.04
2018-12-12T20:35:29.459Z,2.89
2018-12-12T20:37:58.701Z,2.80
2018-12-12T20:40:27.281Z,2.64
2018-12-12T20:42:55.824Z,2.76
2018-12-12T20:45:24.441Z,2.77
2018-12-12T20:47:52.968Z,2.87
2018-12-12T20:50:21.543Z,2.81
2018-12-12T20:52:50.016Z,2.72
2018-12-12T20:55:18.523Z,2.57
2018-12-12T20:57:47.004Z,2.43
2018-12-12T21:00:15.605Z,2.40
2018-12-12T21:02:44.141Z,2.50
2018-12-12T21:05:12.793Z,2.51
2018-12-12T21:07:42.470Z,2.63
2018-12-12T21:10:11.085Z,2.67
2018-12-12T21:12:39.577Z,2.74
2018-12-12T21:15:08.946Z,2.74
2018-12-12T21:17:37.690Z,2.69
2018-12-12T21:20:08.240Z,2.59
2018-12-12T21:22:36.798Z,2.43
2018-12-12T21:25:06.240Z,2.43
2018-12-12T21:27:34.835Z,2.36
2018-12-12T21:30:03.562Z,2.26
2018-12-12T21:32:32.133Z,2.31
2018-12-12T21:35:00.636Z,2.29
2018-12-12T21:37:29.131Z,2.31
2018-12-12T21:39:57.741Z,2.24
2018-12-12T21:42:26.301Z,2.29
2018-12-12T21:44:54.825Z,2.43
2018-12-12T21:47:23.488Z,2.42
2018-12-12T21:49:52.065Z,2.43
2018-12-12T21:52:21.142Z,2.46
2018-12-12T21:54:49.688Z,2.43
2018-12-12T21:57:18.223Z,2.46
2018-12-12T21:59:47.428Z,2.48
2018-12-12T22:02:15.986Z,2.60
2018-12-12T22:04:44.507Z,2.65
2018-12-12T22:07:13.061Z,2.71
2018-12-12T22:09:41.609Z,2.79
2018-12-12T22:12:10.092Z,2.71
2018-12-12T22:14:38.639Z,2.77
2018-12-12T22:17:07.183Z,2.85
2018-12-12T22:19:35.712Z,2.72
2018-12-12T22:22:04.234Z,2.71
2018-12-12T22:24:32.834Z,2.43
2018-12-12T22:27:01.416Z,2.37
2018-12-12T22:29:30.425Z,2.24
2018-12-12T22:31:59.111Z,2.28
2018-12-12T22:34:27.701Z,2.27
2018-12-12T22:36:56.877Z,2.25
2018-12-12T22:39:25.401Z,2.46
2018-12-12T22:41:53.922Z,2.38
2018-12-12T22:44:22.441Z,2.36
2018-12-12T22:46:50.975Z,2.39
2018-12-12T22:49:19.542Z,2.31
2018-12-12T22:51:48.263Z,2.35
2018-12-12T22:54:17.427Z,2.36
2018-12-12T22:56:46.014Z,2.24
2018-12-12T22:59:14.526Z,2.16
2018-12-12T23:01:43.104Z,2.11
2018-12-12T23:04:12.149Z,2.09
2018-12-12T23:06:40.803Z,1.94
2018-12-12T23:09:09.303Z,1.86
2018-12-12T23:11:38.045Z,1.76
2018-12-12T23:14:06.600Z,1.75
2018-12-12T23:16:35.102Z,1.84
2018-12-12T23:19:03.647Z,1.79
2018-12-12T23:21:32.144Z,1.58
2018-12-12T23:24:00.743Z,1.60
2018-12-12T23:26:29.261Z,1.78
2018-12-12T23:28:57.774Z,1.80
2018-12-12T23:31:26.333Z,1.78
2018-12-12T23:33:54.861Z,1.88
2018-12-12T23:36:26.912Z,1.91
2018-12-12T23:38:54.657Z,1.93
2018-12-12T23:41:23.214Z,1.85
2018-12-12T23:43:51.683Z,1.98
2018-12-12T23:46:20.180Z,1.88
2018-12-12T23:48:48.781Z,1.95
2018-12-12T23:51:17.288Z,1.95
2018-12-12T23:53:45.775Z,1.91
2018-12-12T23:56:14.394Z,1.89
2018-12-12T23:58:42.881Z,1.87
